Terminal Aerodrome Forecast
Issued by NWS

Current Version | Previous Version | Text Only | Print | Product List | Glossary On
Versions: 1 2 3 4 5 6 7 8 9 10 11 12 13 14 15 16 17 18 19 20 21 22 23 24 25 26 27 28
000
FTAK31 PANC 290535
TAFAHO
TAF
PAHO 290535Z 2906/3006 05005KT 6SM -RA OVC035
      TEMPO 2906/2909 4SM -RA OVC022
     FM290900 VRB03KT 4SM -RA OVC022
     FM291700 22005KT 5SM -SHRASN OVC022
     FM292200 26015KT P6SM VCSH BKN045=

USA.gov is the U.S. government's official web portal to all federal, state and local government web resources and services.